Aérodrome :
LOGIN :

S'inscrire | Disclaimer

   EN    FR    IT 

 










Légende :    VFR   VFR Marginal   IFR   IFR Intensif   IFR Très Intensif
Visi : 
Plafond : 
>= 8 km
>= 3000ft
5 à 8 km
1000 à 3000 ft
1500m à 5 km
500 à 1000 ft
800 à 1500m
200 à 500 ft
< 800m
< 200 ft
Symboles :   Orages  Brouillard  Fortes neiges  Fortes précipitations  Vent > 20 kt
SIGMETs :   Divers  Orages  Givrage  Turbulence  Onde Orograph.  Cendres Volcan.






- Altitude de l'aérodrome : 645 ft
- Code IATA : DLE


LFGJ - Dole Tavaux

DERNIER METAR :
  • 231300Z AUTO 19020KT 9999 FEW046 BKN130 07/02 Q0994 TEMPO 21018G30KT 4000 SHRA SCT020CB

METARs EXPIRÉS :
  • 231230Z AUTO 19020KT CAVOK 07/02 Q0995 TEMPO 21018G30KT 4000 SHRA SCT020CB
  • 231200Z AUTO 19020KT CAVOK 06/02 Q0996 TEMPO 21018G30KT 4000 SHRA SCT020CB
  • 231130Z AUTO 19020KT 9999 FEW024 BKN054 06/02 Q0996 TEMPO 21018G30KT 4000 SHRA SCT020CB
  • 231100Z AUTO 20016KT 9999 SCT025 BKN041 BKN050 06/02 Q0997 TEMPO 21018G30KT 4000 SHRA SCT020CB

TAF AMD TAF LFGJ
Valide du 23 à 13h jusqu'au 23 à 21h UTC


231303Z 2313/2321 18012KT 9999 SCT020 BKN030
TEMPO 2313/2319 21018G30KT 4000 SHRA SCT020TCU
PROB40
TEMPO 2313/2315 21020G35KT
PROB30
TEMPO 2313/2318 SCT020CB
PROB40
TEMPO 2319/2321 -SHRA



MET'MAP, la Météo Aéronautique d'un coup d'oeil ! - Copyright ORBIFLY Décembre 2007 - Disclaimer

ORBIFLY MET'MAP TEAM :

Programmation & Développement : Alexandra Zaïnal
Sur une idée originale de : Baudouin d'Aumeries
Assistance à la programmation : Marc-Olivier Méhu
Soutien technique & logistique : Manuel Goepfert

Contact : metmap@orbifly.com




SOURCES & CREDITS :

   NOAA